sensor_id;sensor_type;location;lat;lon;timestamp;pressure;altitude;pressure_sealevel;temperature;humidity
13456;BME280;6800;50.940;6.940;2023-06-14T00:01:46;100521.53;;;33.39;19.77
13456;BME280;6800;50.940;6.940;2023-06-14T00:05:48;100525.13;;;32.82;20.63
13456;BME280;6800;50.940;6.940;2023-06-14T00:09:50;100521.66;;;33.72;19.77
13456;BME280;6800;50.940;6.940;2023-06-14T00:13:51;100524.63;;;33.31;20.05
13456;BME280;6800;50.940;6.940;2023-06-14T00:17:53;100529.59;;;33.23;20.09
13456;BME280;6800;50.940;6.940;2023-06-14T00:21:55;100529.84;;;33.21;20.40
13456;BME280;6800;50.940;6.940;2023-06-14T00:25:58;100533.25;;;32.17;21.45
13456;BME280;6800;50.940;6.940;2023-06-14T00:29:59;100538.63;;;32.70;20.91
13456;BME280;6800;50.940;6.940;2023-06-14T00:34:01;100533.00;;;33.06;20.41
13456;BME280;6800;50.940;6.940;2023-06-14T00:38:02;100543.28;;;33.56;19.97
13456;BME280;6800;50.940;6.940;2023-06-14T00:42:04;100535.28;;;33.49;19.83
13456;BME280;6800;50.940;6.940;2023-06-14T00:46:06;100543.78;;;33.53;20.24
13456;BME280;6800;50.940;6.940;2023-06-14T00:50:08;100545.63;;;33.64;19.52
13456;BME280;6800;50.940;6.940;2023-06-14T00:54:10;100554.13;;;33.56;19.72
13456;BME280;6800;50.940;6.940;2023-06-14T00:58:11;100550.38;;;33.57;19.83
13456;BME280;6800;50.940;6.940;2023-06-14T01:02:13;100554.63;;;33.53;19.97
13456;BME280;6800;50.940;6.940;2023-06-14T01:14:53;100566.66;;;33.22;20.15
13456;BME280;6800;50.940;6.940;2023-06-14T01:18:55;100568.16;;;32.83;20.59
13456;BME280;6800;50.940;6.940;2023-06-14T01:22:58;100577.63;;;32.40;21.11
13456;BME280;6800;50.940;6.940;2023-06-14T01:27:01;100569.91;;;32.55;21.34
13456;BME280;6800;50.940;6.940;2023-06-14T01:31:05;100560.63;;;32.85;21.21
13456;BME280;6800;50.940;6.940;2023-06-14T01:35:07;100570.22;;;32.99;20.65
13456;BME280;6800;50.940;6.940;2023-06-14T01:39:11;100577.13;;;32.84;20.89
13456;BME280;6800;50.940;6.940;2023-06-14T01:43:14;100573.25;;;32.80;21.10
13456;BME280;6800;50.940;6.940;2023-06-14T01:47:17;100576.28;;;32.60;21.63
13456;BME280;6800;50.940;6.940;2023-06-14T01:51:18;100576.63;;;32.52;21.20
13456;BME280;6800;50.940;6.940;2023-06-14T01:55:20;100575.91;;;32.57;20.54
13456;BME280;6800;50.940;6.940;2023-06-14T01:59:23;100573.69;;;32.77;20.45
13456;BME280;6800;50.940;6.940;2023-06-14T02:03:24;100571.34;;;32.69;20.30
13456;BME280;6800;50.940;6.940;2023-06-14T02:07:26;100573.56;;;32.49;20.15
13456;BME280;6800;50.940;6.940;2023-06-14T02:11:27;100570.03;;;32.48;20.47
13456;BME280;6800;50.940;6.940;2023-06-14T02:15:28;100574.63;;;32.59;20.23
13456;BME280;6800;50.940;6.940;2023-06-14T02:19:34;100571.91;;;32.48;20.02
13456;BME280;6800;50.940;6.940;2023-06-14T02:23:36;100579.06;;;32.12;20.77
13456;BME280;6800;50.940;6.940;2023-06-14T02:27:38;100578.66;;;32.39;20.48
13456;BME280;6800;50.940;6.940;2023-06-14T02:31:40;100580.41;;;32.33;20.24
13456;BME280;6800;50.940;6.940;2023-06-14T02:35:41;100583.56;;;32.30;20.25
13456;BME280;6800;50.940;6.940;2023-06-14T02:39:43;100580.78;;;32.37;20.45
13456;BME280;6800;50.940;6.940;2023-06-14T02:43:44;100580.66;;;32.31;20.90
13456;BME280;6800;50.940;6.940;2023-06-14T02:47:46;100584.28;;;32.25;20.86
13456;BME280;6800;50.940;6.940;2023-06-14T02:51:48;100591.25;;;32.03;21.08
13456;BME280;6800;50.940;6.940;2023-06-14T02:55:49;100600.69;;;32.12;20.69
13456;BME280;6800;50.940;6.940;2023-06-14T02:59:50;100600.09;;;32.10;21.21
13456;BME280;6800;50.940;6.940;2023-06-14T03:03:53;100600.00;;;32.17;20.87
13456;BME280;6800;50.940;6.940;2023-06-14T03:07:54;100599.63;;;32.13;20.90
13456;BME280;6800;50.940;6.940;2023-06-14T03:11:56;100605.34;;;32.05;21.46
13456;BME280;6800;50.940;6.940;2023-06-14T03:15:58;100606.72;;;31.96;21.54
13456;BME280;6800;50.940;6.940;2023-06-14T03:20:00;100612.66;;;31.87;21.58
13456;BME280;6800;50.940;6.940;2023-06-14T03:24:02;100613.19;;;31.95;21.64
13456;BME280;6800;50.940;6.940;2023-06-14T03:28:05;100618.88;;;32.05;21.81
13456;BME280;6800;50.940;6.940;2023-06-14T03:32:07;100615.28;;;31.75;21.71
13456;BME280;6800;50.940;6.940;2023-06-14T03:36:08;100618.03;;;31.87;21.79
13456;BME280;6800;50.940;6.940;2023-06-14T03:40:11;100625.09;;;31.88;21.84
13456;BME280;6800;50.940;6.940;2023-06-14T03:44:15;100622.63;;;31.86;21.30
13456;BME280;6800;50.940;6.940;2023-06-14T03:48:16;100635.22;;;31.92;21.30
13456;BME280;6800;50.940;6.940;2023-06-14T03:52:18;100626.50;;;31.90;21.51
13456;BME280;6800;50.940;6.940;2023-06-14T03:56:20;100633.72;;;31.96;21.69
13456;BME280;6800;50.940;6.940;2023-06-14T04:00:21;100635.22;;;31.92;21.20
13456;BME280;6800;50.940;6.940;2023-06-14T04:04:23;100643.19;;;32.05;21.13
13456;BME280;6800;50.940;6.940;2023-06-14T04:08:29;100647.84;;;31.98;21.48
13456;BME280;6800;50.940;6.940;2023-06-14T04:12:31;100649.63;;;31.86;21.24
13456;BME280;6800;50.940;6.940;2023-06-14T04:16:32;100660.06;;;31.83;21.36
13456;BME280;6800;50.940;6.940;2023-06-14T04:20:33;100670.19;;;31.26;21.77
13456;BME280;6800;50.940;6.940;2023-06-14T04:24:35;100665.69;;;31.81;21.35
13456;BME280;6800;50.940;6.940;2023-06-14T04:28:37;100676.25;;;30.35;22.78
13456;BME280;6800;50.940;6.940;2023-06-14T04:32:41;100667.63;;;31.92;20.66
13456;BME280;6800;50.940;6.940;2023-06-14T04:36:43;100670.94;;;31.58;20.68
13456;BME280;6800;50.940;6.940;2023-06-14T04:40:50;100675.16;;;30.73;21.89
13456;BME280;6800;50.940;6.940;2023-06-14T04:44:54;100683.91;;;31.86;20.48
13456;BME280;6800;50.940;6.940;2023-06-14T04:48:57;100686.06;;;32.91;19.45
13456;BME280;6800;50.940;6.940;2023-06-14T04:52:58;100688.72;;;32.79;19.92
13456;BME280;6800;50.940;6.940;2023-06-14T04:57:00;100689.19;;;33.06;19.19
13456;BME280;6800;50.940;6.940;2023-06-14T05:01:02;100690.50;;;33.27;19.43
13456;BME280;6800;50.940;6.940;2023-06-14T05:05:04;100694.97;;;33.56;18.99
13456;BME280;6800;50.940;6.940;2023-06-14T05:09:08;100702.16;;;33.73;18.63
13456;BME280;6800;50.940;6.940;2023-06-14T05:13:10;100707.19;;;34.05;18.47
13456;BME280;6800;50.940;6.940;2023-06-14T05:17:12;100709.22;;;34.37;18.17
13456;BME280;6800;50.940;6.940;2023-06-14T05:21:13;100705.16;;;34.51;18.63
13456;BME280;6800;50.940;6.940;2023-06-14T05:25:19;100706.97;;;33.25;18.98
13456;BME280;6800;50.940;6.940;2023-06-14T05:29:21;100703.63;;;34.44;18.67
13456;BME280;6800;50.940;6.940;2023-06-14T05:33:23;100703.41;;;34.90;17.82
13456;BME280;6800;50.940;6.940;2023-06-14T05:37:24;100705.91;;;35.42;17.67
13456;BME280;6800;50.940;6.940;2023-06-14T05:41:27;100708.13;;;35.28;18.03
13456;BME280;6800;50.940;6.940;2023-06-14T05:45:28;100714.38;;;36.00;16.82
13456;BME280;6800;50.940;6.940;2023-06-14T05:49:30;100723.94;;;35.31;17.63
13456;BME280;6800;50.940;6.940;2023-06-14T05:53:32;100728.94;;;35.94;16.94
13456;BME280;6800;50.940;6.940;2023-06-14T05:57:33;100730.44;;;36.45;16.45
13456;BME280;6800;50.940;6.940;2023-06-14T06:01:34;100731.59;;;37.34;15.97
13456;BME280;6800;50.940;6.940;2023-06-14T06:05:37;100727.69;;;36.93;16.75
13456;BME280;6800;50.940;6.940;2023-06-14T06:09:39;100734.81;;;36.72;16.80
13456;BME280;6800;50.940;6.940;2023-06-14T06:13:40;100741.16;;;37.10;16.04
13456;BME280;6800;50.940;6.940;2023-06-14T06:17:42;100745.38;;;36.42;17.18
13456;BME280;6800;50.940;6.940;2023-06-14T06:21:57;100736.13;;;37.60;15.36
13456;BME280;6800;50.940;6.940;2023-06-14T06:25:59;100741.72;;;37.38;16.33
13456;BME280;6800;50.940;6.940;2023-06-14T06:30:00;100736.69;;;39.36;14.15
13456;BME280;6800;50.940;6.940;2023-06-14T06:34:02;100743.38;;;40.09;14.16
13456;BME280;6800;50.940;6.940;2023-06-14T06:38:03;100754.03;;;40.16;13.45
13456;BME280;6800;50.940;6.940;2023-06-14T06:42:05;100745.03;;;40.05;13.20
13456;BME280;6800;50.940;6.940;2023-06-14T06:46:07;100753.13;;;40.79;13.33
13456;BME280;6800;50.940;6.940;2023-06-14T06:50:09;100755.81;;;40.94;13.33
13456;BME280;6800;50.940;6.940;2023-06-14T06:54:10;100765.31;;;37.33;16.82
13456;BME280;6800;50.940;6.940;2023-06-14T06:58:13;100761.69;;;37.49;15.51
13456;BME280;6800;50.940;6.940;2023-06-14T07:02:15;100764.38;;;40.29;13.64
13456;BME280;6800;50.940;6.940;2023-06-14T07:06:17;100765.09;;;40.98;12.98
13456;BME280;6800;50.940;6.940;2023-06-14T07:10:20;100773.44;;;37.23;15.93
13456;BME280;6800;50.940;6.940;2023-06-14T07:14:21;100766.75;;;40.51;14.07
13456;BME280;6800;50.940;6.940;2023-06-14T07:18:24;100760.13;;;42.15;12.75
13456;BME280;6800;50.940;6.940;2023-06-14T07:22:25;100758.06;;;42.87;12.24
13456;BME280;6800;50.940;6.940;2023-06-14T07:26:27;100765.66;;;44.00;11.11
13456;BME280;6800;50.940;6.940;2023-06-14T07:30:28;100761.78;;;41.01;12.80
13456;BME280;6800;50.940;6.940;2023-06-14T07:34:31;100771.28;;;42.47;11.60
13456;BME280;6800;50.940;6.940;2023-06-14T07:38:32;100769.59;;;41.18;12.55
13456;BME280;6800;50.940;6.940;2023-06-14T07:42:34;100768.34;;;41.39;12.33
13456;BME280;6800;50.940;6.940;2023-06-14T07:46:36;100763.41;;;41.02;13.01
13456;BME280;6800;50.940;6.940;2023-06-14T07:50:38;100764.69;;;40.17;12.86
13456;BME280;6800;50.940;6.940;2023-06-14T07:54:39;100765.34;;;40.58;12.83
13456;BME280;6800;50.940;6.940;2023-06-14T07:58:42;100768.28;;;41.73;11.95
13456;BME280;6800;50.940;6.940;2023-06-14T08:02:44;100761.75;;;41.64;12.45
13456;BME280;6800;50.940;6.940;2023-06-14T08:06:46;100751.47;;;40.88;12.58
13456;BME280;6800;50.940;6.940;2023-06-14T08:10:49;100754.94;;;38.03;14.04
13456;BME280;6800;50.940;6.940;2023-06-14T08:14:51;100756.91;;;42.50;11.14
13456;BME280;6800;50.940;6.940;2023-06-14T08:19:12;100759.63;;;39.30;12.04
13456;BME280;6800;50.940;6.940;2023-06-14T08:23:14;100755.25;;;36.75;14.05
13456;BME280;6800;50.940;6.940;2023-06-14T08:27:17;100761.56;;;36.80;13.90
13456;BME280;6800;50.940;6.940;2023-06-14T08:31:18;100772.19;;;36.55;13.57
13456;BME280;6800;50.940;6.940;2023-06-14T08:35:20;100757.97;;;34.89;15.35
13456;BME280;6800;50.940;6.940;2023-06-14T08:39:21;100783.31;;;35.56;14.60
13456;BME280;6800;50.940;6.940;2023-06-14T08:43:23;100761.41;;;36.65;13.54
13456;BME280;6800;50.940;6.940;2023-06-14T08:47:26;100753.91;;;38.14;12.71
13456;BME280;6800;50.940;6.940;2023-06-14T08:51:31;100754.34;;;36.21;13.90
13456;BME280;6800;50.940;6.940;2023-06-14T08:55:35;100751.25;;;38.30;12.83
13456;BME280;6800;50.940;6.940;2023-06-14T08:59:47;100747.88;;;36.70;13.19
13456;BME280;6800;50.940;6.940;2023-06-14T09:03:53;100757.50;;;35.08;15.35
13456;BME280;6800;50.940;6.940;2023-06-14T09:07:58;100743.53;;;37.33;13.44
13456;BME280;6800;50.940;6.940;2023-06-14T09:12:08;100745.13;;;38.02;13.67
13456;BME280;6800;50.940;6.940;2023-06-14T09:16:11;100743.31;;;34.22;16.19
13456;BME280;6800;50.940;6.940;2023-06-14T09:20:13;100749.31;;;37.36;13.60
13456;BME280;6800;50.940;6.940;2023-06-14T09:24:19;100751.38;;;37.98;13.51
13456;BME280;6800;50.940;6.940;2023-06-14T09:28:26;100756.50;;;36.62;13.90
13456;BME280;6800;50.940;6.940;2023-06-14T09:32:28;100754.28;;;41.12;10.69
13456;BME280;6800;50.940;6.940;2023-06-14T09:36:31;100754.16;;;38.95;12.52
13456;BME280;6800;50.940;6.940;2023-06-14T09:40:35;100759.06;;;39.68;12.09
13456;BME280;6800;50.940;6.940;2023-06-14T09:44:38;100748.91;;;42.72;10.06
13456;BME280;6800;50.940;6.940;2023-06-14T09:48:39;100756.22;;;41.11;11.64
13456;BME280;6800;50.940;6.940;2023-06-14T09:52:45;100765.34;;;36.53;14.32
13456;BME280;6800;50.940;6.940;2023-06-14T09:56:50;100767.06;;;40.44;11.66
13456;BME280;6800;50.940;6.940;2023-06-14T10:00:52;100756.03;;;42.13;10.88
13456;BME280;6800;50.940;6.940;2023-06-14T10:05:03;100751.53;;;43.47;9.76
13456;BME280;6800;50.940;6.940;2023-06-14T10:09:09;100760.28;;;37.15;13.47
13456;BME280;6800;50.940;6.940;2023-06-14T10:13:12;100747.59;;;42.09;11.42
13456;BME280;6800;50.940;6.940;2023-06-14T10:17:21;100739.56;;;43.97;9.62
13456;BME280;6800;50.940;6.940;2023-06-14T10:25:42;100742.53;;;43.28;10.18
13456;BME280;6800;50.940;6.940;2023-06-14T10:37:55;100752.72;;;39.93;12.44
13456;BME280;6800;50.940;6.940;2023-06-14T10:41:57;100741.25;;;37.93;14.28
13456;BME280;6800;50.940;6.940;2023-06-14T10:46:16;100739.59;;;43.38;10.93
13456;BME280;6800;50.940;6.940;2023-06-14T10:50:27;100742.34;;;40.98;11.51
13456;BME280;6800;50.940;6.940;2023-06-14T10:54:31;100743.72;;;36.41;14.32
13456;BME280;6800;50.940;6.940;2023-06-14T10:58:32;100748.06;;;37.54;14.05
13456;BME280;6800;50.940;6.940;2023-06-14T11:02:51;100743.97;;;38.55;13.30
13456;BME280;6800;50.940;6.940;2023-06-14T11:07:10;100743.34;;;42.17;10.74
13456;BME280;6800;50.940;6.940;2023-06-14T11:11:22;100734.78;;;45.63;8.97
13456;BME280;6800;50.940;6.940;2023-06-14T11:15:31;100742.13;;;41.80;11.35
13456;BME280;6800;50.940;6.940;2023-06-14T11:19:33;100726.09;;;43.23;10.91
13456;BME280;6800;50.940;6.940;2023-06-14T11:23:35;100735.56;;;39.62;13.22
13456;BME280;6800;50.940;6.940;2023-06-14T11:27:37;100727.09;;;39.49;14.23
13456;BME280;6800;50.940;6.940;2023-06-14T11:31:43;100735.13;;;41.69;12.59
13456;BME280;6800;50.940;6.940;2023-06-14T11:35:45;100729.66;;;40.68;12.79
13456;BME280;6800;50.940;6.940;2023-06-14T11:39:47;100727.56;;;41.56;12.89
13456;BME280;6800;50.940;6.940;2023-06-14T11:43:52;100731.25;;;44.52;11.03
13456;BME280;6800;50.940;6.940;2023-06-14T11:47:55;100724.03;;;40.49;13.54
13456;BME280;6800;50.940;6.940;2023-06-14T11:51:57;100727.31;;;38.67;15.68
13456;BME280;6800;50.940;6.940;2023-06-14T11:55:59;100729.84;;;38.88;15.22
13456;BME280;6800;50.940;6.940;2023-06-14T12:00:06;100723.88;;;36.67;16.98
13456;BME280;6800;50.940;6.940;2023-06-14T12:04:13;100719.41;;;41.75;12.67
13456;BME280;6800;50.940;6.940;2023-06-14T12:08:14;100726.31;;;40.76;12.86
13456;BME280;6800;50.940;6.940;2023-06-14T12:12:20;100732.81;;;38.72;14.66
13456;BME280;6800;50.940;6.940;2023-06-14T12:16:32;100720.47;;;37.82;15.41
13456;BME280;6800;50.940;6.940;2023-06-14T12:20:34;100712.03;;;38.66;14.27
13456;BME280;6800;50.940;6.940;2023-06-14T12:24:37;100719.19;;;40.75;13.39
13456;BME280;6800;50.940;6.940;2023-06-14T12:28:40;100725.19;;;41.97;12.35
13456;BME280;6800;50.940;6.940;2023-06-14T12:32:43;100717.78;;;39.65;13.61
13456;BME280;6800;50.940;6.940;2023-06-14T12:36:45;100718.41;;;41.89;12.48
13456;BME280;6800;50.940;6.940;2023-06-14T12:40:47;100727.94;;;40.33;13.46
13456;BME280;6800;50.940;6.940;2023-06-14T12:44:49;100734.53;;;39.23;14.13
13456;BME280;6800;50.940;6.940;2023-06-14T12:48:50;100736.38;;;38.00;15.37
13456;BME280;6800;50.940;6.940;2023-06-14T12:52:51;100719.75;;;39.04;14.38
13456;BME280;6800;50.940;6.940;2023-06-14T12:56:53;100733.38;;;39.64;13.82
13456;BME280;6800;50.940;6.940;2023-06-14T13:00:56;100737.41;;;37.94;15.40
13456;BME280;6800;50.940;6.940;2023-06-14T13:04:57;100729.84;;;38.93;14.30
13456;BME280;6800;50.940;6.940;2023-06-14T13:09:00;100732.34;;;39.15;14.43
13456;BME280;6800;50.940;6.940;2023-06-14T13:13:02;100736.66;;;38.04;15.00
13456;BME280;6800;50.940;6.940;2023-06-14T13:17:04;100744.22;;;37.45;15.46
13456;BME280;6800;50.940;6.940;2023-06-14T13:21:06;100735.28;;;37.96;15.18
13456;BME280;6800;50.940;6.940;2023-06-14T13:25:08;100724.25;;;37.34;15.84
13456;BME280;6800;50.940;6.940;2023-06-14T13:29:09;100739.00;;;37.43;14.99
13456;BME280;6800;50.940;6.940;2023-06-14T13:33:10;100749.31;;;37.78;15.81
13456;BME280;6800;50.940;6.940;2023-06-14T13:37:12;100752.19;;;37.25;15.88
13456;BME280;6800;50.940;6.940;2023-06-14T13:41:13;100747.78;;;38.49;14.77
13456;BME280;6800;50.940;6.940;2023-06-14T13:45:15;100749.84;;;37.75;15.47
13456;BME280;6800;50.940;6.940;2023-06-14T13:49:16;100740.34;;;36.83;15.71
13456;BME280;6800;50.940;6.940;2023-06-14T13:53:18;100754.84;;;37.88;14.58
13456;BME280;6800;50.940;6.940;2023-06-14T13:57:19;100756.03;;;38.07;15.28
13456;BME280;6800;50.940;6.940;2023-06-14T14:01:21;100754.03;;;38.45;14.72
13456;BME280;6800;50.940;6.940;2023-06-14T14:05:23;100752.69;;;37.17;15.72
13456;BME280;6800;50.940;6.940;2023-06-14T14:09:30;100752.50;;;37.60;15.16
13456;BME280;6800;50.940;6.940;2023-06-14T14:13:31;100735.63;;;38.20;14.34
13456;BME280;6800;50.940;6.940;2023-06-14T14:17:33;100738.22;;;38.47;14.20
13456;BME280;6800;50.940;6.940;2023-06-14T14:21:34;100739.53;;;38.39;14.62
13456;BME280;6800;50.940;6.940;2023-06-14T14:25:36;100735.31;;;37.65;14.89
13456;BME280;6800;50.940;6.940;2023-06-14T14:29:38;100743.47;;;37.23;15.29
13456;BME280;6800;50.940;6.940;2023-06-14T14:33:39;100740.72;;;37.96;14.81
13456;BME280;6800;50.940;6.940;2023-06-14T14:37:40;100745.00;;;38.34;14.61
13456;BME280;6800;50.940;6.940;2023-06-14T14:41:42;100743.47;;;38.01;14.95
13456;BME280;6800;50.940;6.940;2023-06-14T14:45:43;100755.50;;;38.77;14.21
13456;BME280;6800;50.940;6.940;2023-06-14T14:49:44;100752.41;;;38.49;14.47
13456;BME280;6800;50.940;6.940;2023-06-14T14:53:46;100750.19;;;38.36;14.53
13456;BME280;6800;50.940;6.940;2023-06-14T14:57:47;100749.16;;;37.90;15.34
13456;BME280;6800;50.940;6.940;2023-06-14T15:01:49;100749.91;;;37.80;15.11
13456;BME280;6800;50.940;6.940;2023-06-14T15:05:52;100757.50;;;37.78;14.87
13456;BME280;6800;50.940;6.940;2023-06-14T15:09:54;100745.47;;;37.01;16.24
13456;BME280;6800;50.940;6.940;2023-06-14T15:13:55;100741.16;;;38.35;14.51
13456;BME280;6800;50.940;6.940;2023-06-14T15:17:58;100752.50;;;38.89;14.69
13456;BME280;6800;50.940;6.940;2023-06-14T15:22:00;100754.06;;;38.65;14.81
13456;BME280;6800;50.940;6.940;2023-06-14T15:26:01;100755.75;;;33.71;18.66
13456;BME280;6800;50.940;6.940;2023-06-14T15:30:03;100766.44;;;35.92;16.95
13456;BME280;6800;50.940;6.940;2023-06-14T15:34:04;100761.56;;;36.80;15.80
13456;BME280;6800;50.940;6.940;2023-06-14T15:38:06;100775.72;;;36.34;16.14
13456;BME280;6800;50.940;6.940;2023-06-14T15:42:08;100767.66;;;37.83;15.31
13456;BME280;6800;50.940;6.940;2023-06-14T15:46:09;100769.19;;;38.20;14.47
13456;BME280;6800;50.940;6.940;2023-06-14T15:50:11;100759.91;;;37.70;15.34
13456;BME280;6800;50.940;6.940;2023-06-14T15:54:12;100758.66;;;38.44;14.72
13456;BME280;6800;50.940;6.940;2023-06-14T15:58:14;100761.91;;;38.31;15.08
13456;BME280;6800;50.940;6.940;2023-06-14T16:02:15;100751.66;;;37.96;14.94
13456;BME280;6800;50.940;6.940;2023-06-14T16:06:17;100751.34;;;37.56;14.79
13456;BME280;6800;50.940;6.940;2023-06-14T16:10:18;100768.59;;;35.90;16.67
13456;BME280;6800;50.940;6.940;2023-06-14T16:14:20;100756.94;;;35.73;16.97
13456;BME280;6800;50.940;6.940;2023-06-14T16:18:22;100756.03;;;36.70;15.89
13456;BME280;6800;50.940;6.940;2023-06-14T16:22:23;100758.63;;;37.14;15.04
13456;BME280;6800;50.940;6.940;2023-06-14T16:26:24;100757.44;;;37.00;15.17
13456;BME280;6800;50.940;6.940;2023-06-14T16:30:26;100758.06;;;37.43;14.70
13456;BME280;6800;50.940;6.940;2023-06-14T16:34:28;100756.91;;;37.71;14.36
13456;BME280;6800;50.940;6.940;2023-06-14T16:38:31;100760.97;;;38.15;14.61
13456;BME280;6800;50.940;6.940;2023-06-14T16:42:33;100749.47;;;38.03;14.51
13456;BME280;6800;50.940;6.940;2023-06-14T16:46:34;100758.25;;;38.15;14.74
13456;BME280;6800;50.940;6.940;2023-06-14T16:50:36;100755.94;;;37.87;14.90
13456;BME280;6800;50.940;6.940;2023-06-14T16:54:38;100765.25;;;37.23;15.77
13456;BME280;6800;50.940;6.940;2023-06-14T16:58:39;100771.75;;;36.42;15.74
13456;BME280;6800;50.940;6.940;2023-06-14T17:02:40;100765.97;;;37.40;15.38
13456;BME280;6800;50.940;6.940;2023-06-14T17:06:42;100777.19;;;37.80;14.97
13456;BME280;6800;50.940;6.940;2023-06-14T17:10:43;100775.81;;;36.88;15.39
13456;BME280;6800;50.940;6.940;2023-06-14T17:14:45;100778.16;;;37.01;15.36
13456;BME280;6800;50.940;6.940;2023-06-14T17:18:46;100777.69;;;37.09;15.51
13456;BME280;6800;50.940;6.940;2023-06-14T17:22:47;100777.25;;;36.25;15.89
13456;BME280;6800;50.940;6.940;2023-06-14T17:26:49;100779.38;;;37.46;15.26
13456;BME280;6800;50.940;6.940;2023-06-14T17:30:50;100775.09;;;37.97;14.85
13456;BME280;6800;50.940;6.940;2023-06-14T17:34:52;100785.00;;;37.35;15.76
13456;BME280;6800;50.940;6.940;2023-06-14T17:38:53;100791.44;;;35.22;17.13
13456;BME280;6800;50.940;6.940;2023-06-14T17:42:55;100794.06;;;35.34;17.00
13456;BME280;6800;50.940;6.940;2023-06-14T17:46:59;100802.97;;;35.96;16.31
13456;BME280;6800;50.940;6.940;2023-06-14T17:51:04;100803.06;;;36.01;16.24
13456;BME280;6800;50.940;6.940;2023-06-14T17:55:05;100792.56;;;37.28;15.32
13456;BME280;6800;50.940;6.940;2023-06-14T17:59:07;100802.47;;;37.07;15.55
13456;BME280;6800;50.940;6.940;2023-06-14T18:03:08;100802.63;;;36.52;16.47
13456;BME280;6800;50.940;6.940;2023-06-14T18:07:10;100801.47;;;36.92;15.26
13456;BME280;6800;50.940;6.940;2023-06-14T18:11:11;100798.72;;;37.45;14.93
13456;BME280;6800;50.940;6.940;2023-06-14T18:15:13;100804.19;;;37.45;15.17
13456;BME280;6800;50.940;6.940;2023-06-14T18:19:15;100815.19;;;37.28;15.76
13456;BME280;6800;50.940;6.940;2023-06-14T18:23:18;100822.00;;;37.63;15.38
13456;BME280;6800;50.940;6.940;2023-06-14T18:27:19;100821.31;;;37.40;15.46
13456;BME280;6800;50.940;6.940;2023-06-14T18:31:20;100831.19;;;37.20;15.09
13456;BME280;6800;50.940;6.940;2023-06-14T18:35:22;100822.00;;;37.31;14.87
13456;BME280;6800;50.940;6.940;2023-06-14T18:39:24;100825.41;;;37.16;15.40
13456;BME280;6800;50.940;6.940;2023-06-14T18:43:25;100835.75;;;36.44;15.72
13456;BME280;6800;50.940;6.940;2023-06-14T18:47:26;100830.44;;;36.38;15.47
13456;BME280;6800;50.940;6.940;2023-06-14T18:51:28;100834.88;;;36.87;15.79
13456;BME280;6800;50.940;6.940;2023-06-14T18:55:29;100840.63;;;36.64;15.37
13456;BME280;6800;50.940;6.940;2023-06-14T18:59:31;100840.84;;;35.53;16.14
13456;BME280;6800;50.940;6.940;2023-06-14T19:03:33;100841.25;;;35.45;16.45
13456;BME280;6800;50.940;6.940;2023-06-14T19:07:34;100849.50;;;35.66;16.54
13456;BME280;6800;50.940;6.940;2023-06-14T19:11:36;100850.34;;;36.38;15.82
13456;BME280;6800;50.940;6.940;2023-06-14T19:15:37;100856.09;;;36.03;15.83
13456;BME280;6800;50.940;6.940;2023-06-14T19:19:39;100856.09;;;35.87;16.56
13456;BME280;6800;50.940;6.940;2023-06-14T19:23:41;100852.72;;;36.51;15.24
13456;BME280;6800;50.940;6.940;2023-06-14T19:27:45;100856.34;;;36.02;15.60
13456;BME280;6800;50.940;6.940;2023-06-14T19:31:47;100855.75;;;36.17;15.57
13456;BME280;6800;50.940;6.940;2023-06-14T19:35:48;100854.88;;;35.78;16.48
13456;BME280;6800;50.940;6.940;2023-06-14T19:39:50;100864.97;;;34.53;17.15
13456;BME280;6800;50.940;6.940;2023-06-14T19:43:51;100865.94;;;34.87;16.99
13456;BME280;6800;50.940;6.940;2023-06-14T19:47:52;100862.63;;;33.99;18.52
13456;BME280;6800;50.940;6.940;2023-06-14T19:52:07;100873.25;;;34.35;18.87
13456;BME280;6800;50.940;6.940;2023-06-14T19:56:09;100873.38;;;34.05;19.01
13456;BME280;6800;50.940;6.940;2023-06-14T20:00:10;100875.66;;;33.67;19.30
13456;BME280;6800;50.940;6.940;2023-06-14T20:04:14;100885.88;;;34.52;18.23
13456;BME280;6800;50.940;6.940;2023-06-14T20:08:15;100895.16;;;33.99;19.09
13456;BME280;6800;50.940;6.940;2023-06-14T20:12:23;100898.47;;;35.10;17.74
13456;BME280;6800;50.940;6.940;2023-06-14T20:16:24;100902.72;;;34.20;18.97
13456;BME280;6800;50.940;6.940;2023-06-14T20:20:26;100911.38;;;33.75;19.81
13456;BME280;6800;50.940;6.940;2023-06-14T20:24:27;100917.09;;;33.26;20.43
13456;BME280;6800;50.940;6.940;2023-06-14T20:28:29;100925.41;;;33.84;20.09
13456;BME280;6800;50.940;6.940;2023-06-14T20:32:32;100932.19;;;34.05;19.42
13456;BME280;6800;50.940;6.940;2023-06-14T20:36:33;100927.09;;;33.97;19.62
13456;BME280;6800;50.940;6.940;2023-06-14T20:40:35;100924.25;;;33.92;20.11
13456;BME280;6800;50.940;6.940;2023-06-14T20:44:38;100924.75;;;34.00;19.61
13456;BME280;6800;50.940;6.940;2023-06-14T20:48:42;100931.28;;;33.81;20.55
13456;BME280;6800;50.940;6.940;2023-06-14T20:52:43;100937.53;;;33.40;20.57
13456;BME280;6800;50.940;6.940;2023-06-14T20:56:45;100936.38;;;33.89;20.32
13456;BME280;6800;50.940;6.940;2023-06-14T21:00:46;100944.34;;;33.61;20.35
13456;BME280;6800;50.940;6.940;2023-06-14T21:04:48;100949.53;;;33.15;20.73
13456;BME280;6800;50.940;6.940;2023-06-14T21:08:49;100956.22;;;33.12;21.04
13456;BME280;6800;50.940;6.940;2023-06-14T21:12:51;100953.84;;;33.04;21.18
13456;BME280;6800;50.940;6.940;2023-06-14T21:16:55;100952.88;;;33.28;20.91
13456;BME280;6800;50.940;6.940;2023-06-14T21:20:57;100959.31;;;33.45;21.39
13456;BME280;6800;50.940;6.940;2023-06-14T21:24:58;100957.81;;;33.01;21.40
13456;BME280;6800;50.940;6.940;2023-06-14T21:29:00;100956.31;;;33.53;20.56
13456;BME280;6800;50.940;6.940;2023-06-14T21:33:03;100955.28;;;32.21;22.28
13456;BME280;6800;50.940;6.940;2023-06-14T21:37:05;100949.66;;;33.67;20.51
13456;BME280;6800;50.940;6.940;2023-06-14T21:41:07;100958.78;;;32.89;21.58
13456;BME280;6800;50.940;6.940;2023-06-14T21:45:09;100960.97;;;33.46;21.29